createdAt,value
2022-10-04T00:03:49.609Z,3.90
2022-10-04T00:09:00.805Z,3.90
2022-10-04T00:14:29.477Z,4.00
2022-10-04T00:19:48.377Z,3.20
2022-10-04T00:25:07.158Z,4.10
2022-10-04T00:30:24.097Z,4.50
2022-10-04T00:35:27.399Z,2.90
2022-10-04T00:40:42.691Z,3.90
2022-10-04T00:45:53.936Z,4.20
2022-10-04T00:51:47.981Z,4.50
2022-10-04T00:57:05.331Z,4.10
2022-10-04T01:02:26.855Z,3.30
2022-10-04T01:07:44.309Z,3.50
2022-10-04T01:13:40.258Z,5.10
2022-10-04T01:18:44.078Z,4.50
2022-10-04T01:23:59.686Z,4.60
2022-10-04T01:29:28.795Z,3.30
2022-10-04T01:34:32.321Z,6.10
2022-10-04T01:39:35.753Z,4.90
2022-10-04T01:44:55.680Z,3.00
2022-10-04T01:50:07.548Z,4.90
2022-10-04T01:55:20.534Z,5.90
2022-10-04T02:00:25.045Z,4.90
2022-10-04T02:05:37.947Z,6.40
2022-10-04T02:10:43.768Z,4.50
2022-10-04T02:15:48.627Z,7.80
2022-10-04T02:20:53.940Z,4.30
2022-10-04T02:25:57.310Z,6.80
2022-10-04T02:31:20.466Z,6.60
2022-10-04T02:36:29.863Z,4.20
2022-10-04T02:41:36.099Z,5.40
2022-10-04T02:46:50.429Z,4.30
2022-10-04T02:52:33.164Z,3.50
2022-10-04T02:57:37.224Z,4.60
2022-10-04T03:02:41.170Z,3.00
2022-10-04T03:07:45.297Z,4.20
2022-10-04T03:12:52.346Z,4.80
2022-10-04T03:17:56.166Z,4.60
2022-10-04T03:22:59.546Z,5.10
2022-10-04T03:28:03.860Z,4.20
2022-10-04T03:33:07.573Z,4.50
2022-10-04T03:38:13.406Z,3.70
2022-10-04T03:43:17.452Z,5.40
2022-10-04T03:48:32.383Z,4.00
2022-10-04T03:53:44.638Z,5.20
2022-10-04T03:58:51.640Z,4.90
2022-10-04T04:04:36.663Z,4.30
2022-10-04T04:09:46.289Z,6.10
2022-10-04T04:14:53.590Z,6.30
2022-10-04T04:20:07.383Z,5.50
2022-10-04T04:25:16.864Z,4.80
2022-10-04T04:30:20.656Z,4.80
2022-10-04T04:35:36.736Z,4.20
2022-10-04T04:40:41.049Z,4.50
2022-10-04T04:45:45.536Z,6.60
2022-10-04T04:50:56.745Z,7.50
2022-10-04T04:56:10.475Z,5.90
2022-10-04T05:01:45.340Z,6.90
2022-10-04T05:07:19.963Z,4.80
2022-10-04T05:12:24.515Z,5.90
2022-10-04T05:17:35.423Z,4.80
2022-10-04T05:22:44.126Z,5.00
2022-10-04T05:27:47.750Z,4.00
2022-10-04T05:33:12.255Z,6.50
2022-10-04T05:38:23.934Z,5.40
2022-10-04T05:43:27.173Z,6.20
2022-10-04T05:48:31.028Z,16.00
2022-10-04T05:53:36.054Z,18.30
2022-10-04T05:59:26.869Z,12.20
2022-10-04T06:05:12.787Z,16.30
2022-10-04T06:10:59.411Z,12.30
2022-10-04T06:16:21.090Z,14.20
2022-10-04T06:21:36.957Z,15.30
2022-10-04T06:27:03.001Z,10.20
2022-10-04T06:32:38.979Z,12.00
2022-10-04T06:38:11.475Z,9.70
2022-10-04T06:43:45.098Z,5.00
2022-10-04T06:49:00.240Z,8.70
2022-10-04T06:54:43.330Z,4.10
2022-10-04T07:00:15.834Z,21.60
2022-10-04T07:05:50.267Z,28.60
2022-10-04T07:10:59.622Z,18.90
2022-10-04T07:16:34.989Z,6.50
2022-10-04T07:22:05.026Z,4.90
2022-10-04T07:27:21.649Z,6.70
2022-10-04T07:32:43.496Z,5.40
2022-10-04T07:38:07.182Z,9.10
2022-10-04T07:43:56.469Z,7.40
2022-10-04T07:49:00.831Z,6.20
2022-10-04T07:54:43.952Z,5.70
2022-10-04T08:00:12.659Z,5.90
2022-10-04T08:05:46.223Z,8.70
2022-10-04T08:11:22.467Z,5.90
2022-10-04T08:16:59.284Z,5.30
2022-10-04T08:22:26.761Z,5.00
2022-10-04T08:28:25.920Z,5.50
2022-10-04T08:33:57.122Z,3.90
2022-10-04T08:39:01.459Z,5.20
2022-10-04T08:44:39.652Z,6.40
2022-10-04T08:50:01.328Z,4.60
2022-10-04T08:56:01.378Z,6.40
2022-10-04T09:01:23.058Z,5.60
2022-10-04T09:06:57.359Z,7.20
2022-10-04T09:12:37.541Z,4.30
2022-10-04T09:18:01.782Z,3.60
2022-10-04T09:23:44.981Z,3.70
2022-10-04T09:29:32.941Z,4.60
2022-10-04T09:35:32.670Z,6.60
2022-10-04T09:41:05.472Z,9.10
2022-10-04T09:46:37.699Z,4.00
2022-10-04T09:52:02.182Z,3.60
2022-10-04T09:57:19.074Z,4.00
2022-10-04T10:03:21.303Z,2.80
2022-10-04T10:08:47.753Z,3.80
2022-10-04T10:14:27.384Z,4.30
2022-10-04T10:20:06.764Z,4.10
2022-10-04T10:25:37.189Z,3.60
2022-10-04T10:31:09.669Z,5.40
2022-10-04T10:36:44.602Z,4.60
2022-10-04T10:42:33.338Z,4.80
2022-10-04T10:48:05.145Z,5.00
2022-10-04T10:53:30.441Z,4.90
2022-10-04T10:59:27.656Z,3.10
2022-10-04T11:04:58.681Z,3.50
2022-10-04T11:10:39.265Z,3.80
2022-10-04T11:16:42.022Z,4.70
2022-10-04T11:22:38.450Z,3.90
2022-10-04T11:28:18.785Z,4.00
2022-10-04T11:34:00.418Z,5.20
2022-10-04T11:39:21.855Z,4.40
2022-10-04T11:45:07.976Z,5.80
2022-10-04T11:50:35.960Z,4.70
2022-10-04T11:56:08.377Z,3.50
2022-10-04T12:01:45.145Z,3.30
2022-10-04T12:07:35.158Z,7.60
2022-10-04T12:13:06.934Z,3.50
2022-10-04T12:18:46.402Z,2.20
2022-10-04T12:23:58.813Z,4.30
2022-10-04T12:29:24.552Z,7.80
2022-10-04T12:34:46.914Z,2.70
2022-10-04T12:40:28.619Z,3.50
2022-10-04T12:45:48.587Z,5.00
2022-10-04T12:51:29.500Z,3.80
2022-10-04T12:57:33.040Z,2.60
2022-10-04T13:03:04.413Z,1.80
2022-10-04T13:08:58.589Z,2.70
2022-10-04T13:14:20.880Z,3.20
2022-10-04T13:19:50.705Z,2.20
2022-10-04T13:25:43.042Z,1.60
2022-10-04T13:31:08.991Z,2.40
2022-10-04T13:36:29.826Z,4.70
2022-10-04T13:41:51.779Z,1.60
2022-10-04T13:47:31.341Z,2.20
2022-10-04T13:53:08.117Z,2.20
2022-10-04T13:58:39.610Z,2.00
2022-10-04T14:04:27.739Z,3.50
2022-10-04T14:09:52.178Z,3.00
2022-10-04T14:15:25.698Z,2.90
2022-10-04T14:21:19.917Z,4.00
2022-10-04T14:27:13.300Z,2.90
2022-10-04T14:33:00.369Z,3.20
2022-10-04T14:38:16.332Z,4.60
2022-10-04T14:44:00.106Z,4.30
2022-10-04T14:49:31.972Z,2.10
2022-10-04T14:55:14.708Z,3.90
2022-10-04T15:00:20.941Z,5.30
2022-10-04T15:06:19.812Z,2.90
2022-10-04T15:12:25.477Z,5.20
2022-10-04T15:17:38.313Z,2.40
2022-10-04T15:22:50.335Z,4.30
2022-10-04T15:27:58.248Z,2.30
2022-10-04T15:33:20.004Z,3.80
2022-10-04T15:39:05.390Z,2.60
2022-10-04T15:44:12.178Z,4.30
2022-10-04T15:49:37.099Z,9.40
2022-10-04T15:55:08.262Z,8.00
2022-10-04T16:00:29.145Z,8.20
2022-10-04T16:06:04.126Z,11.20
2022-10-04T16:11:49.258Z,7.20
2022-10-04T16:17:33.605Z,12.40
2022-10-04T16:22:38.538Z,38.40
2022-10-04T16:27:57.114Z,33.90
2022-10-04T16:33:14.023Z,9.50
2022-10-04T16:38:29.191Z,22.60
2022-10-04T16:43:36.024Z,21.10
2022-10-04T16:48:56.460Z,13.60
2022-10-04T16:55:01.433Z,6.50
2022-10-04T17:00:36.430Z,7.10
2022-10-04T17:05:53.603Z,63.70
2022-10-04T17:11:15.446Z,52.50
2022-10-04T17:16:48.993Z,51.00
2022-10-04T17:22:07.127Z,37.90
2022-10-04T17:27:19.311Z,43.90
2022-10-04T17:32:39.458Z,24.90
2022-10-04T17:38:03.035Z,59.70
2022-10-04T17:43:41.587Z,24.50
2022-10-04T17:49:28.301Z,30.60
2022-10-04T17:55:01.725Z,36.30
2022-10-04T18:00:22.032Z,18.90
2022-10-04T18:05:31.294Z,28.20
2022-10-04T18:11:23.333Z,22.50
2022-10-04T18:16:53.677Z,16.40
2022-10-04T18:22:17.883Z,160.00
2022-10-04T18:27:27.236Z,329.80
2022-10-04T18:32:35.030Z,103.10
2022-10-04T18:37:39.598Z,44.10
2022-10-04T18:42:54.990Z,15.90
2022-10-04T18:48:15.294Z,29.20
2022-10-04T18:53:26.813Z,21.00
2022-10-04T18:58:54.484Z,11.70
2022-10-04T19:04:07.318Z,10.10
2022-10-04T19:09:29.783Z,11.90
2022-10-04T19:14:50.090Z,12.30
2022-10-04T19:20:13.955Z,10.40
2022-10-04T19:25:36.752Z,12.60
2022-10-04T19:31:11.407Z,9.70
2022-10-04T19:36:42.578Z,10.00
2022-10-04T19:42:14.246Z,9.70
2022-10-04T19:47:51.340Z,10.60
2022-10-04T19:53:07.965Z,15.50
2022-10-04T19:58:32.576Z,9.00
2022-10-04T20:03:35.996Z,12.90
2022-10-04T20:09:02.684Z,13.10
2022-10-04T20:14:07.398Z,12.40
2022-10-04T20:19:39.895Z,13.90
2022-10-04T20:24:45.042Z,13.90
2022-10-04T20:29:54.222Z,11.60
2022-10-04T20:34:59.290Z,10.00
2022-10-04T20:40:02.852Z,10.30
2022-10-04T20:45:22.492Z,11.20
2022-10-04T20:50:42.432Z,9.60
2022-10-04T20:55:46.990Z,10.60
2022-10-04T21:00:59.848Z,9.50
2022-10-04T21:06:09.946Z,10.50
2022-10-04T21:11:21.369Z,10.60
2022-10-04T21:17:02.411Z,9.10
2022-10-04T21:22:17.394Z,10.20
2022-10-04T21:27:36.698Z,12.70
2022-10-04T21:32:40.390Z,11.10
2022-10-04T21:37:43.702Z,9.70
2022-10-04T21:42:47.014Z,11.30
2022-10-04T21:47:50.289Z,131.60
2022-10-04T21:52:53.849Z,46.90
2022-10-04T21:57:57.358Z,18.50
2022-10-04T22:03:01.200Z,106.90
2022-10-04T22:08:04.902Z,77.50
2022-10-04T22:13:08.327Z,37.10
2022-10-04T22:18:11.840Z,58.30
2022-10-04T22:23:25.942Z,75.30
2022-10-04T22:28:31.362Z,52.60
2022-10-04T22:33:37.335Z,37.90
2022-10-04T22:39:01.432Z,66.30
2022-10-04T22:44:20.307Z,78.30
2022-10-04T22:49:31.328Z,108.30
2022-10-04T22:54:36.229Z,59.60
2022-10-04T22:59:43.745Z,57.20
2022-10-04T23:04:54.638Z,36.30
2022-10-04T23:09:58.065Z,26.30
2022-10-04T23:15:02.665Z,14.30
2022-10-04T23:20:20.542Z,21.90
2022-10-04T23:25:28.821Z,21.40
2022-10-04T23:30:32.197Z,8.80
2022-10-04T23:35:35.611Z,11.20
2022-10-04T23:40:39.126Z,10.20
2022-10-04T23:45:44.638Z,9.60
2022-10-04T23:50:48.311Z,10.00
2022-10-04T23:55:51.659Z,10.60
